Back to Top

Language: 

My Weather Underground Personal Weather Station Historical Data with Graphs...

Delerius Weather Station Historical Data
Daily Summary for May 3, 2017 Units:  Metric    English   Both
« Previous Day
Next Day »
Daily Weekly Monthly Yearly Custom
  High: Low: Average:
Temperature: 15.3 °C 5.3 °C 10.1 °C
Dew Point: 7.2 °C 1.7 °C 5.3 °C
Humidity: 93 % 40 % 74 %
Wind Speed: 20.9 km/h 3.2 km/h 12.1 km/h
Wind Gust: 41.8 km/h - -
Wind:- - ENE
Pressure: 1027 hPa 1025.3 hPa -
Precipitation: 0 mm    
Historical Graphs
 
 
Tabular Data for May 3, 2017
Time Temperature Dew Point Pressure Wind Wind Speed Wind Gust Humidity Rainfall Rate (Hourly) solar Conditions
00:04 8.2 °C 6.3 °C 1026.3 hPa ENE 6.4 km/h 19.3 km/h 88 % 0 mm 0 W/m2
00:09 8.1 °C 6.2 °C 1026.3 hPa NE 6.4 km/h 17.7 km/h 88 % 0 mm 0 W/m2
00:14 8.1 °C 6.2 °C 1026 hPa NNE 9.7 km/h 19.3 km/h 88 % 0 mm 0 W/m2
00:24 8 °C 6.1 °C 1026 hPa NNE 9.7 km/h 20.9 km/h 88 % 0 mm 0 W/m2
00:29 7.9 °C 6.1 °C 1026.3 hPa NNE 11.3 km/h 20.9 km/h 88 % 0 mm 0 W/m2
00:34 7.9 °C 6.1 °C 1026 hPa NNE 9.7 km/h 19.3 km/h 88 % 0 mm 0 W/m2
00:39 7.9 °C 6.1 °C 1026 hPa NNE 8 km/h 16.1 km/h 88 % 0 mm 0 W/m2
00:44 7.8 °C 5.9 °C 1026 hPa NNE 9.7 km/h 19.3 km/h 88 % 0 mm 0 W/m2
00:50 7.8 °C 5.9 °C 1026 hPa NNE 8 km/h 22.5 km/h 88 % 0 mm 0 W/m2
00:55 7.8 °C 6.1 °C 1026 hPa NNE 8 km/h 22.5 km/h 89 % 0 mm 0 W/m2
01:00 7.7 °C 6 °C 1026 hPa NNE 6.4 km/h 16.1 km/h 89 % 0 mm 0 W/m2
01:05 7.7 °C 6 °C 1026 hPa NNE 9.7 km/h 22.5 km/h 89 % 0 mm 0 W/m2
01:10 7.6 °C 5.9 °C 1026 hPa NNE 11.3 km/h 22.5 km/h 89 % 0 mm 0 W/m2
01:15 7.5 °C 5.8 °C 1026 hPa NNE 9.7 km/h 20.9 km/h 89 % 0 mm 0 W/m2
01:20 7.4 °C 5.7 °C 1026 hPa NNE 9.7 km/h 20.9 km/h 89 % 0 mm 0 W/m2
01:25 7.3 °C 5.6 °C 1026 hPa NNE 9.7 km/h 19.3 km/h 89 % 0 mm 0 W/m2
01:30 7.3 °C 5.6 °C 1026 hPa North 9.7 km/h 19.3 km/h 89 % 0 mm 0 W/m2
01:35 7.1 °C 5.6 °C 1026 hPa North 9.7 km/h 19.3 km/h 90 % 0 mm 0 W/m2
01:40 7 °C 5.4 °C 1026 hPa North 9.7 km/h 19.3 km/h 90 % 0 mm 0 W/m2
01:45 6.9 °C 5.4 °C 1026 hPa North 9.7 km/h 17.7 km/h 90 % 0 mm 0 W/m2
01:50 6.8 °C 5.3 °C 1026.3 hPa North 9.7 km/h 17.7 km/h 90 % 0 mm 0 W/m2
01:55 6.7 °C 5.2 °C 1026.3 hPa North 8 km/h 17.7 km/h 90 % 0 mm 0 W/m2
02:00 6.6 °C 5.2 °C 1026.3 hPa North 6.4 km/h 16.1 km/h 91 % 0 mm 0 W/m2
02:05 6.5 °C 5 °C 1026.3 hPa North 4.8 km/h 14.5 km/h 90 % 0 mm 0 W/m2
02:10 6.4 °C 5.1 °C 1026.3 hPa North 6.4 km/h 16.1 km/h 91 % 0 mm 0 W/m2
02:15 6.3 °C 4.9 °C 1026.3 hPa North 8 km/h 16.1 km/h 91 % 0 mm 0 W/m2
02:20 6.3 °C 4.9 °C 1026.3 hPa NNE 8 km/h 14.5 km/h 91 % 0 mm 0 W/m2
02:25 6.2 °C 4.8 °C 1026 hPa North 8 km/h 16.1 km/h 91 % 0 mm 0 W/m2
02:30 6.2 °C 4.8 °C 1026.3 hPa North 8 km/h 16.1 km/h 91 % 0 mm 0 W/m2
02:35 6.1 °C 4.7 °C 1026 hPa North 8 km/h 14.5 km/h 91 % 0 mm 0 W/m2
02:40 6 °C 4.7 °C 1026 hPa NNW 9.7 km/h 19.3 km/h 91 % 0 mm 0 W/m2
02:45 5.9 °C 4.7 °C 1026 hPa NNW 9.7 km/h 19.3 km/h 92 % 0 mm 0 W/m2
02:50 5.9 °C 4.7 °C 1026 hPa North 9.7 km/h 19.3 km/h 92 % 0 mm 0 W/m2
02:55 5.9 °C 4.7 °C 1026 hPa North 9.7 km/h 19.3 km/h 92 % 0 mm 0 W/m2
03:00 5.8 °C 4.6 °C 1026 hPa North 6.4 km/h 16.1 km/h 92 % 0 mm 0 W/m2
03:05 5.8 °C 4.6 °C 1026 hPa North 8 km/h 17.7 km/h 92 % 0 mm 0 W/m2
03:10 5.7 °C 4.5 °C 1026 hPa North 9.7 km/h 17.7 km/h 92 % 0 mm 0 W/m2
03:15 5.7 °C 4.5 °C 1026 hPa North 8 km/h 19.3 km/h 92 % 0 mm 0 W/m2
03:20 5.7 °C 4.5 °C 1026 hPa North 8 km/h 19.3 km/h 92 % 0 mm 0 W/m2
03:25 5.6 °C 4.4 °C 1026 hPa North 9.7 km/h 17.7 km/h 92 % 0 mm 0 W/m2
03:30 5.6 °C 4.4 °C 1026 hPa North 9.7 km/h 17.7 km/h 92 % 0 mm 0 W/m2
03:35 5.6 °C 4.4 °C 1026 hPa North 8 km/h 14.5 km/h 92 % 0 mm 0 W/m2
03:40 5.6 °C 4.4 °C 1026 hPa North 8 km/h 17.7 km/h 92 % 0 mm 0 W/m2
03:45 5.5 °C 4.3 °C 1026 hPa North 9.7 km/h 17.7 km/h 92 % 0 mm 0 W/m2
03:50 5.5 °C 4.3 °C 1026 hPa North 8 km/h 16.1 km/h 92 % 0 mm 0 W/m2
03:55 5.4 °C 4.2 °C 1026 hPa North 8 km/h 16.1 km/h 92 % 0 mm 0 W/m2
04:00 5.4 °C 4.2 °C 1026 hPa North 8 km/h 16.1 km/h 92 % 0 mm 0 W/m2
04:05 5.4 °C 4.2 °C 1026.3 hPa North 8 km/h 16.1 km/h 92 % 0 mm 0 W/m2
04:10 5.3 °C 4.1 °C 1026 hPa North 8 km/h 17.7 km/h 92 % 0 mm 0 W/m2
04:15 5.3 °C 4.1 °C 1026 hPa North 8 km/h 17.7 km/h 92 % 0 mm 0 W/m2
04:20 5.3 °C 4.1 °C 1026 hPa NNE 9.7 km/h 17.7 km/h 92 % 0 mm 0 W/m2
04:25 5.3 °C 4.3 °C 1026 hPa NNE 9.7 km/h 19.3 km/h 93 % 0 mm 0 W/m2
04:30 5.3 °C 4.3 °C 1026 hPa NNE 9.7 km/h 24.1 km/h 93 % 0 mm 0 W/m2
04:35 5.4 °C 4.3 °C 1026 hPa NNE 9.7 km/h 24.1 km/h 93 % 0 mm 0 W/m2
04:40 5.4 °C 4.3 °C 1026 hPa NNE 9.7 km/h 20.9 km/h 93 % 0 mm 0 W/m2
04:45 5.4 °C 4.2 °C 1026 hPa NNE 9.7 km/h 20.9 km/h 92 % 0 mm 0 W/m2
04:50 5.3 °C 4.1 °C 1026 hPa NNE 8 km/h 19.3 km/h 92 % 0 mm 0 W/m2
04:55 5.3 °C 4.1 °C 1026 hPa NNE 8 km/h 19.3 km/h 92 % 0 mm 0 W/m2
05:01 5.3 °C 4.1 °C 1026 hPa NNE 9.7 km/h 19.3 km/h 92 % 0 mm 0 W/m2
05:06 5.4 °C 4.2 °C 1026 hPa NNE 11.3 km/h 19.3 km/h 92 % 0 mm 0 W/m2
05:08 5.4 °C 4.2 °C 1026 hPa NNE 11.3 km/h 19.3 km/h 92 % 0 mm 0 W/m2
05:13 5.4 °C 4.2 °C 1026 hPa NNE 11.3 km/h 19.3 km/h 92 % 0 mm 0 W/m2
05:14 5.4 °C 4.2 °C 1026 hPa NNE 11.3 km/h 19.3 km/h 92 % 0 mm 0 W/m2
05:19 5.4 °C 4.2 °C 1026 hPa NNE 9.7 km/h 17.7 km/h 92 % 0 mm 0 W/m2
05:24 5.4 °C 4.2 °C 1026 hPa NNE 9.7 km/h 17.7 km/h 92 % 0 mm 0 W/m2
05:29 5.3 °C 4.1 °C 1026 hPa NNE 9.7 km/h 17.7 km/h 92 % 0 mm 5 W/m2
05:34 5.3 °C 4.1 °C 1026 hPa NNE 9.7 km/h 16.1 km/h 92 % 0 mm 7 W/m2
05:39 5.3 °C 4.1 °C 1026 hPa NNE 9.7 km/h 19.3 km/h 92 % 0 mm 9 W/m2
05:44 5.3 °C 4.1 °C 1026.3 hPa NNE 11.3 km/h 19.3 km/h 92 % 0 mm 12 W/m2
05:49 5.3 °C 4.1 °C 1026.3 hPa NNE 11.3 km/h 20.9 km/h 92 % 0 mm 14 W/m2
05:54 5.4 °C 4.2 °C 1026.3 hPa NNE 11.3 km/h 22.5 km/h 92 % 0 mm 16 W/m2
05:59 5.4 °C 4.2 °C 1026.3 hPa NNE 11.3 km/h 22.5 km/h 92 % 0 mm 18 W/m2
06:04 5.4 °C 4.2 °C 1026.3 hPa NNE 11.3 km/h 22.5 km/h 92 % 0 mm 21 W/m2
06:09 5.4 °C 4.2 °C 1026.3 hPa NNE 11.3 km/h 22.5 km/h 92 % 0 mm 23 W/m2
06:14 5.5 °C 4.3 °C 1026.3 hPa NNE 11.3 km/h 22.5 km/h 92 % 0 mm 25 W/m2
06:19 5.6 °C 4.4 °C 1026.3 hPa NNE 12.9 km/h 22.5 km/h 92 % 0 mm 56 W/m2
06:24 5.7 °C 4.5 °C 1026.3 hPa NNE 11.3 km/h 22.5 km/h 92 % 0 mm 81 W/m2
06:29 5.8 °C 4.4 °C 1026.3 hPa NNE 12.9 km/h 22.5 km/h 91 % 0 mm 91 W/m2
06:34 5.9 °C 4.6 °C 1026.3 hPa NNE 12.9 km/h 22.5 km/h 91 % 0 mm 100 W/m2
06:39 6.1 °C 4.7 °C 1026.3 hPa NNE 11.3 km/h 19.3 km/h 91 % 0 mm 109 W/m2
06:44 6.2 °C 4.7 °C 1026.3 hPa NNE 9.7 km/h 22.5 km/h 90 % 0 mm 120 W/m2
06:49 6.3 °C 4.8 °C 1026.3 hPa NNE 9.7 km/h 22.5 km/h 90 % 0 mm 128 W/m2
06:54 6.4 °C 4.9 °C 1026.3 hPa NNE 9.7 km/h 17.7 km/h 90 % 0 mm 104 W/m2
06:59 6.5 °C 5 °C 1026.3 hPa NNE 9.7 km/h 24.1 km/h 90 % 0 mm 158 W/m2
07:04 6.6 °C 5.1 °C 1026.3 hPa NNE 11.3 km/h 24.1 km/h 90 % 0 mm 172 W/m2
07:09 6.8 °C 5.3 °C 1026.3 hPa NNE 11.3 km/h 20.9 km/h 90 % 0 mm 188 W/m2
07:14 7 °C 5.3 °C 1026.3 hPa NNE 11.3 km/h 20.9 km/h 89 % 0 mm 199 W/m2
07:19 7.2 °C 5.3 °C 1026.3 hPa NNE 9.7 km/h 24.1 km/h 88 % 0 mm 209 W/m2
07:24 7.4 °C 5.4 °C 1026.3 hPa NNE 11.3 km/h 25.7 km/h 87 % 0 mm 225 W/m2
07:29 7.6 °C 5.4 °C 1026.3 hPa NNE 12.9 km/h 25.7 km/h 86 % 0 mm 237 W/m2
07:34 7.8 °C 5.6 °C 1026.6 hPa NNE 12.9 km/h 22.5 km/h 86 % 0 mm 250 W/m2
07:39 8 °C 5.6 °C 1026.6 hPa NNE 11.3 km/h 20.9 km/h 85 % 0 mm 264 W/m2
07:45 8.2 °C 5.7 °C 1026.6 hPa NNE 11.3 km/h 20.9 km/h 84 % 0 mm 278 W/m2
07:50 8.4 °C 5.8 °C 1026.6 hPa NNE 9.7 km/h 20.9 km/h 84 % 0 mm 290 W/m2
07:55 8.5 °C 5.8 °C 1026.6 hPa NNE 11.3 km/h 24.1 km/h 83 % 0 mm 306 W/m2
07:59 8.7 °C 6 °C 1026.6 hPa NNE 12.9 km/h 24.1 km/h 83 % 0 mm 318 W/m2
08:00 8.7 °C 6 °C 1026.6 hPa NNE 11.3 km/h 24.1 km/h 83 % 0 mm 322 W/m2
08:05 8.8 °C 6.1 °C 1026.6 hPa NNE 9.7 km/h 22.5 km/h 83 % 0 mm 341 W/m2
08:10 9.1 °C 6 °C 1026.6 hPa NNE 11.3 km/h 20.9 km/h 81 % 0 mm 352 W/m2
08:15 9.2 °C 6.1 °C 1026.6 hPa NNE 11.3 km/h 20.9 km/h 81 % 0 mm 366 W/m2
08:21 9.4 °C 6.1 °C 1026.6 hPa NNE 9.7 km/h 20.9 km/h 80 % 0 mm 383 W/m2
08:26 9.6 °C 6.1 °C 1026.6 hPa NNE 12.9 km/h 22.5 km/h 79 % 0 mm 399 W/m2
08:31 9.8 °C 6.2 °C 1026.6 hPa NNE 12.9 km/h 24.1 km/h 78 % 0 mm 413 W/m2
08:36 10 °C 6.2 °C 1026.6 hPa NNE 12.9 km/h 29 km/h 77 % 0 mm 427 W/m2
08:41 10.2 °C 6.2 °C 1026.6 hPa NE 11.3 km/h 29 km/h 76 % 0 mm 434 W/m2
08:46 10.5 °C 6.3 °C 1026.6 hPa NE 9.7 km/h 19.3 km/h 75 % 0 mm 455 W/m2
08:51 10.8 °C 5.9 °C 1026.6 hPa NE 9.7 km/h 19.3 km/h 72 % 0 mm 469 W/m2
08:56 11.1 °C 6.1 °C 1026.6 hPa NE 9.7 km/h 24.1 km/h 71 % 0 mm 483 W/m2
09:02 11.3 °C 5.6 °C 1026.6 hPa NE 12.9 km/h 32.2 km/h 68 % 0 mm 494 W/m2
09:07 11.2 °C 5.7 °C 1026.3 hPa NE 16.1 km/h 32.2 km/h 69 % 0 mm 512 W/m2
09:12 11.3 °C 5.8 °C 1026.3 hPa NE 14.5 km/h 29 km/h 69 % 0 mm 524 W/m2
09:17 11.4 °C 5.9 °C 1026.6 hPa NE 14.5 km/h 29 km/h 69 % 0 mm 540 W/m2
09:22 11.6 °C 5.9 °C 1026.6 hPa NE 14.5 km/h 29 km/h 68 % 0 mm 545 W/m2
09:27 11.8 °C 5.9 °C 1026.3 hPa NE 11.3 km/h 29 km/h 67 % 0 mm 552 W/m2
09:32 11.9 °C 5.9 °C 1026.3 hPa NE 12.9 km/h 30.6 km/h 67 % 0 mm 573 W/m2
09:37 12 °C 5.8 °C 1026.3 hPa NE 14.5 km/h 30.6 km/h 66 % 0 mm 589 W/m2
09:42 12.2 °C 5.6 °C 1026.3 hPa ENE 14.5 km/h 30.6 km/h 64 % 0 mm 589 W/m2
09:47 12.3 °C 5.7 °C 1026.3 hPa NE 16.1 km/h 33.8 km/h 64 % 0 mm 613 W/m2
09:52 12.3 °C 5.2 °C 1026.3 hPa NE 17.7 km/h 37 km/h 62 % 0 mm 619 W/m2
09:57 12.6 °C 5.1 °C 1026.3 hPa ENE 17.7 km/h 37 km/h 60 % 0 mm 629 W/m2
10:02 12.8 °C 5.4 °C 1026.3 hPa ENE 14.5 km/h 30.6 km/h 61 % 0 mm 645 W/m2
10:07 13.1 °C 5.3 °C 1026.3 hPa ENE 12.9 km/h 32.2 km/h 59 % 0 mm 656 W/m2
10:12 13.1 °C 5.3 °C 1026.3 hPa NE 14.5 km/h 32.2 km/h 59 % 0 mm 670 W/m2
10:17 13.1 °C 5.3 °C 1026.3 hPa NE 16.1 km/h 32.2 km/h 59 % 0 mm 694 W/m2
10:22 13.2 °C 5.1 °C 1026.3 hPa NE 16.1 km/h 32.2 km/h 58 % 0 mm 691 W/m2
10:27 13.1 °C 5 °C 1026.3 hPa NE 17.7 km/h 38.6 km/h 58 % 0 mm 353 W/m2
10:32 13.1 °C 5.5 °C 1026 hPa NE 16.1 km/h 38.6 km/h 60 % 0 mm 768 W/m2
10:33 13.1 °C 5.5 °C 1026 hPa NE 16.1 km/h 33.8 km/h 60 % 0 mm 768 W/m2
10:38 13.2 °C 5.1 °C 1026 hPa NE 16.1 km/h 33.8 km/h 58 % 0 mm 306 W/m2
10:43 13.3 °C 4.9 °C 1026 hPa NE 17.7 km/h 32.2 km/h 57 % 0 mm 527 W/m2
10:48 13.4 °C 5.1 °C 1026 hPa NE 17.7 km/h 32.2 km/h 57 % 0 mm 462 W/m2
10:53 13.3 °C 4.7 °C 1026 hPa NE 16.1 km/h 32.2 km/h 56 % 0 mm 352 W/m2
10:58 13.3 °C 4.4 °C 1026 hPa NE 16.1 km/h 32.2 km/h 55 % 0 mm 478 W/m2
11:03 13.4 °C 5.1 °C 1026 hPa NE 16.1 km/h 33.8 km/h 57 % 0 mm 1000 W/m2
11:08 13.9 °C 5.8 °C 1026 hPa ENE 14.5 km/h 33.8 km/h 58 % 0 mm 979 W/m2
11:13 14.2 °C 4.5 °C 1026 hPa ENE 16.1 km/h 41.8 km/h 52 % 0 mm 979 W/m2
11:18 14 °C 4.8 °C 1026 hPa ENE 16.1 km/h 41.8 km/h 54 % 0 mm 606 W/m2
11:23 14.1 °C 4.9 °C 1026 hPa ENE 16.1 km/h 33.8 km/h 54 % 0 mm 531 W/m2
11:28 14.1 °C 4.7 °C 1026 hPa NE 16.1 km/h 33.8 km/h 53 % 0 mm 448 W/m2
11:33 14.1 °C 4.7 °C 1026 hPa ENE 16.1 km/h 33.8 km/h 53 % 0 mm 417 W/m2
11:38 14.1 °C 4.4 °C 1026 hPa ENE 16.1 km/h 29 km/h 52 % 0 mm 949 W/m2
11:43 14.4 °C 3.8 °C 1026 hPa ENE 14.5 km/h 30.6 km/h 49 % 0 mm 970 W/m2
11:48 14.4 °C 4.1 °C 1026 hPa ENE 16.1 km/h 32.2 km/h 50 % 0 mm 960 W/m2
11:53 14.8 °C 4.8 °C 1026 hPa ENE 14.5 km/h 32.2 km/h 51 % 0 mm 406 W/m2
11:58 14.6 °C 3.7 °C 1026 hPa ENE 16.1 km/h 29 km/h 48 % 0 mm 418 W/m2
12:03 14.2 °C 3.6 °C 1026 hPa ENE 16.1 km/h 29 km/h 49 % 0 mm 357 W/m2
12:08 14.1 °C 4.1 °C 1026 hPa ENE 14.5 km/h 30.6 km/h 51 % 0 mm 436 W/m2
12:13 14.1 °C 3.6 °C 1026 hPa ENE 17.7 km/h 40.2 km/h 49 % 0 mm 489 W/m2
12:18 14.1 °C 3.6 °C 1026 hPa ENE 20.9 km/h 40.2 km/h 49 % 0 mm 649 W/m2
12:19 14.1 °C 3.6 °C 1026 hPa ENE 20.9 km/h 40.2 km/h 49 % 0 mm 649 W/m2
12:23 14.1 °C 3.8 °C 1026 hPa ENE 17.7 km/h 35.4 km/h 50 % 0 mm 552 W/m2
12:29 14.2 °C 3.3 °C 1026 hPa ENE 14.5 km/h 30.6 km/h 48 % 0 mm 513 W/m2
12:34 14.3 °C 3.4 °C 1025.6 hPa ENE 14.5 km/h 29 km/h 48 % 0 mm 599 W/m2
12:39 14.3 °C 3.1 °C 1026 hPa ENE 16.1 km/h 33.8 km/h 47 % 0 mm 559 W/m2
12:44 14.1 °C 2.7 °C 1025.6 hPa ENE 17.7 km/h 33.8 km/h 46 % 0 mm 436 W/m2
12:49 14.2 °C 2.7 °C 1026 hPa ENE 17.7 km/h 35.4 km/h 46 % 0 mm 503 W/m2
12:54 14.3 °C 2.8 °C 1026 hPa ENE 17.7 km/h 35.4 km/h 46 % 0 mm 450 W/m2
12:59 14.2 °C 3.1 °C 1025.6 hPa ENE 16.1 km/h 32.2 km/h 47 % 0 mm 589 W/m2
13:04 14.3 °C 3.1 °C 1025.6 hPa ENE 14.5 km/h 33.8 km/h 47 % 0 mm 599 W/m2
13:09 14.3 °C 3.1 °C 1025.6 hPa ENE 14.5 km/h 33.8 km/h 47 % 0 mm 570 W/m2
13:14 14.2 °C 2.7 °C 1025.6 hPa ENE 16.1 km/h 33.8 km/h 46 % 0 mm 512 W/m2
13:19 14.2 °C 2.7 °C 1025.6 hPa NE 14.5 km/h 38.6 km/h 46 % 0 mm 362 W/m2
13:24 14.3 °C 3.4 °C 1025.6 hPa ENE 12.9 km/h 38.6 km/h 48 % 0 mm 710 W/m2
13:29 14.6 °C 3.4 °C 1025.6 hPa ENE 14.5 km/h 30.6 km/h 47 % 0 mm 710 W/m2
13:34 14.6 °C 2.8 °C 1025.6 hPa ENE 16.1 km/h 30.6 km/h 45 % 0 mm 1039 W/m2
13:39 15 °C 2.8 °C 1025.6 hPa ENE 16.1 km/h 30.6 km/h 44 % 0 mm 1116 W/m2
13:44 15.2 °C 2.7 °C 1025.6 hPa ENE 16.1 km/h 30.6 km/h 43 % 0 mm 1204 W/m2
13:49 15.1 °C 2.6 °C 1025.3 hPa ENE 16.1 km/h 29 km/h 43 % 0 mm 482 W/m2
13:54 15.1 °C 2.6 °C 1025.3 hPa ENE 16.1 km/h 38.6 km/h 43 % 0 mm 482 W/m2
13:59 15 °C 2.5 °C 1025.6 hPa ENE 16.1 km/h 38.6 km/h 43 % 0 mm 388 W/m2
14:04 15 °C 1.8 °C 1025.6 hPa ENE 16.1 km/h 37 km/h 41 % 0 mm 575 W/m2
14:09 14.8 °C 1.7 °C 1025.3 hPa ENE 16.1 km/h 37 km/h 41 % 0 mm 367 W/m2
14:14 14.8 °C 1.7 °C 1025.6 hPa ENE 16.1 km/h 33.8 km/h 41 % 0 mm 1004 W/m2
14:15 14.8 °C 1.7 °C 1025.3 hPa ENE 14.5 km/h 33.8 km/h 41 % 0 mm 942 W/m2
14:20 15 °C 1.8 °C 1025.3 hPa ENE 16.1 km/h 32.2 km/h 41 % 0 mm 933 W/m2
14:25 15.2 °C 1.7 °C 1025.3 hPa East 16.1 km/h 32.2 km/h 40 % 0 mm 360 W/m2
14:30 15.3 °C 2.4 °C 1025.3 hPa East 11.3 km/h 29 km/h 42 % 0 mm 327 W/m2
14:35 15.1 °C 3.2 °C 1025.6 hPa ENE 11.3 km/h 24.1 km/h 45 % 0 mm 285 W/m2
14:40 14.8 °C 2.9 °C 1025.6 hPa ENE 12.9 km/h 29 km/h 45 % 0 mm 200 W/m2
14:45 14.3 °C 3.4 °C 1025.3 hPa ENE 12.9 km/h 32.2 km/h 48 % 0 mm 271 W/m2
14:50 14.2 °C 3.6 °C 1025.6 hPa ENE 11.3 km/h 32.2 km/h 49 % 0 mm 214 W/m2
14:55 14.1 °C 3.2 °C 1025.3 hPa ENE 11.3 km/h 24.1 km/h 48 % 0 mm 250 W/m2
15:00 13.9 °C 3.6 °C 1025.3 hPa ENE 12.9 km/h 24.1 km/h 50 % 0 mm 258 W/m2
15:05 13.8 °C 3.6 °C 1025.3 hPa ENE 9.7 km/h 20.9 km/h 50 % 0 mm 225 W/m2
15:10 13.8 °C 3.6 °C 1025.3 hPa ENE 9.7 km/h 20.9 km/h 50 % 0 mm 181 W/m2
15:15 13.8 °C 3.8 °C 1025.3 hPa ENE 11.3 km/h 29 km/h 51 % 0 mm 165 W/m2
15:20 13.6 °C 4.2 °C 1025.3 hPa ENE 14.5 km/h 30.6 km/h 53 % 0 mm 174 W/m2
15:25 13.4 °C 4.3 °C 1025.3 hPa ENE 14.5 km/h 30.6 km/h 54 % 0 mm 188 W/m2
15:30 13.3 °C 4.7 °C 1025.6 hPa ENE 14.5 km/h 29 km/h 56 % 0 mm 262 W/m2
15:36 13.3 °C 4.9 °C 1025.3 hPa ENE 16.1 km/h 29 km/h 57 % 0 mm 360 W/m2
15:41 13.4 °C 5.3 °C 1025.3 hPa ENE 14.5 km/h 35.4 km/h 58 % 0 mm 290 W/m2
15:46 13.5 °C 5.6 °C 1025.3 hPa NE 14.5 km/h 35.4 km/h 59 % 0 mm 322 W/m2
15:51 13.6 °C 6 °C 1025.3 hPa ENE 12.9 km/h 25.7 km/h 60 % 0 mm 352 W/m2
15:56 13.8 °C 6.2 °C 1025.3 hPa ENE 14.5 km/h 29 km/h 60 % 0 mm 450 W/m2
16:01 13.8 °C 6.2 °C 1025.3 hPa ENE 14.5 km/h 29 km/h 60 % 0 mm 236 W/m2
16:06 13.7 °C 6.3 °C 1025.3 hPa NE 14.5 km/h 30.6 km/h 61 % 0 mm 257 W/m2
16:11 13.4 °C 6.3 °C 1025.3 hPa NE 16.1 km/h 35.4 km/h 62 % 0 mm 213 W/m2
16:16 13.2 °C 6.6 °C 1025.3 hPa NE 16.1 km/h 35.4 km/h 64 % 0 mm 258 W/m2
16:21 13.1 °C 6.7 °C 1025.3 hPa ENE 14.5 km/h 29 km/h 65 % 0 mm 243 W/m2
16:26 13 °C 6.6 °C 1025.3 hPa ENE 14.5 km/h 29 km/h 65 % 0 mm 202 W/m2
16:31 12.9 °C 6.5 °C 1025.3 hPa ENE 14.5 km/h 29 km/h 65 % 0 mm 229 W/m2
16:36 12.7 °C 6.5 °C 1025.3 hPa ENE 16.1 km/h 29 km/h 66 % 0 mm 165 W/m2
16:41 12.7 °C 6.7 °C 1025.3 hPa ENE 12.9 km/h 25.7 km/h 67 % 0 mm 213 W/m2
16:46 12.6 °C 6.6 °C 1025.3 hPa ENE 12.9 km/h 30.6 km/h 67 % 0 mm 237 W/m2
16:51 12.6 °C 6.6 °C 1025.3 hPa ENE 14.5 km/h 33.8 km/h 67 % 0 mm 199 W/m2
16:56 12.6 °C 6.8 °C 1025.3 hPa ENE 14.5 km/h 33.8 km/h 68 % 0 mm 237 W/m2
17:01 12.6 °C 6.8 °C 1025.3 hPa ENE 12.9 km/h 29 km/h 68 % 0 mm 134 W/m2
17:06 12.6 °C 6.8 °C 1025.3 hPa ENE 12.9 km/h 22.5 km/h 68 % 0 mm 202 W/m2
17:11 12.6 °C 7.1 °C 1025.3 hPa ENE 12.9 km/h 24.1 km/h 69 % 0 mm 120 W/m2
17:16 12.5 °C 6.9 °C 1025.3 hPa ENE 12.9 km/h 29 km/h 69 % 0 mm 88 W/m2
17:19 12.5 °C 6.9 °C 1025.3 hPa ENE 14.5 km/h 29 km/h 69 % 0 mm 125 W/m2
17:21 12.4 °C 6.9 °C 1025.6 hPa ENE 14.5 km/h 29 km/h 69 % 0 mm 123 W/m2
17:26 12.4 °C 7.1 °C 1025.3 hPa ENE 12.9 km/h 29 km/h 70 % 0 mm 105 W/m2
17:31 12.4 °C 7.1 °C 1025.6 hPa ENE 9.7 km/h 20.9 km/h 70 % 0 mm 63 W/m2
17:36 12.4 °C 7.1 °C 1025.6 hPa ENE 9.7 km/h 20.9 km/h 70 % 0 mm 93 W/m2
17:41 12.2 °C 7.1 °C 1025.6 hPa ENE 12.9 km/h 22.5 km/h 71 % 0 mm 72 W/m2
17:46 12.2 °C 7.1 °C 1025.6 hPa ENE 12.9 km/h 25.7 km/h 71 % 0 mm 97 W/m2
17:51 12.1 °C 7.2 °C 1025.6 hPa ENE 12.9 km/h 25.7 km/h 72 % 0 mm 74 W/m2
17:56 12.1 °C 7.2 °C 1025.6 hPa ENE 12.9 km/h 24.1 km/h 72 % 0 mm 153 W/m2
18:01 12.1 °C 7.2 °C 1025.6 hPa ENE 12.9 km/h 32.2 km/h 72 % 0 mm 155 W/m2
18:06 12.1 °C 7 °C 1025.6 hPa NE 14.5 km/h 32.2 km/h 71 % 0 mm 169 W/m2
18:11 12.1 °C 7 °C 1025.6 hPa NE 14.5 km/h 32.2 km/h 71 % 0 mm 90 W/m2
18:16 12 °C 6.9 °C 1025.6 hPa ENE 14.5 km/h 32.2 km/h 71 % 0 mm 70 W/m2
18:21 11.9 °C 7 °C 1025.6 hPa NE 12.9 km/h 29 km/h 72 % 0 mm 49 W/m2
18:26 11.8 °C 6.7 °C 1025.6 hPa NE 12.9 km/h 33.8 km/h 71 % 0 mm 42 W/m2
18:31 11.7 °C 6.8 °C 1025.6 hPa ENE 14.5 km/h 33.8 km/h 72 % 0 mm 60 W/m2
18:37 11.6 °C 6.7 °C 1025.6 hPa ENE 14.5 km/h 25.7 km/h 72 % 0 mm 67 W/m2
18:42 11.6 °C 6.7 °C 1025.6 hPa ENE 14.5 km/h 29 km/h 72 % 0 mm 58 W/m2
18:47 11.5 °C 6.8 °C 1025.6 hPa NE 12.9 km/h 30.6 km/h 73 % 0 mm 49 W/m2
18:52 11.5 °C 6.8 °C 1025.6 hPa NE 14.5 km/h 30.6 km/h 73 % 0 mm 42 W/m2
18:57 11.4 °C 6.7 °C 1026 hPa ENE 12.9 km/h 25.7 km/h 73 % 0 mm 37 W/m2
19:02 11.3 °C 6.6 °C 1025.6 hPa ENE 11.3 km/h 30.6 km/h 73 % 0 mm 30 W/m2
19:07 11.3 °C 6.8 °C 1025.6 hPa ENE 12.9 km/h 30.6 km/h 74 % 0 mm 30 W/m2
19:12 11.2 °C 6.7 °C 1026 hPa ENE 12.9 km/h 24.1 km/h 74 % 0 mm 25 W/m2
19:17 11.1 °C 6.6 °C 1026 hPa ENE 11.3 km/h 24.1 km/h 74 % 0 mm 19 W/m2
19:22 11.1 °C 6.6 °C 1026 hPa ENE 11.3 km/h 29 km/h 74 % 0 mm 18 W/m2
19:27 10.9 °C 6.7 °C 1026 hPa ENE 11.3 km/h 29 km/h 75 % 0 mm 12 W/m2
19:28 10.9 °C 6.7 °C 1026 hPa ENE 11.3 km/h 29 km/h 75 % 0 mm 14 W/m2
19:32 10.9 °C 6.7 °C 1026 hPa ENE 11.3 km/h 25.7 km/h 75 % 0 mm 12 W/m2
19:37 10.8 °C 6.6 °C 1026 hPa ENE 12.9 km/h 25.7 km/h 75 % 0 mm 9 W/m2
19:42 10.8 °C 6.7 °C 1026 hPa ENE 11.3 km/h 20.9 km/h 76 % 0 mm 9 W/m2
19:47 10.7 °C 6.7 °C 1026.3 hPa ENE 12.9 km/h 24.1 km/h 76 % 0 mm 7 W/m2
19:52 10.6 °C 6.7 °C 1026.3 hPa ENE 12.9 km/h 24.1 km/h 77 % 0 mm 5 W/m2
19:57 10.6 °C 6.7 °C 1026.3 hPa ENE 11.3 km/h 22.5 km/h 77 % 0 mm 7 W/m2
20:02 10.5 °C 6.6 °C 1026.3 hPa ENE 9.7 km/h 20.9 km/h 77 % 0 mm 5 W/m2
20:07 10.4 °C 6.7 °C 1026.3 hPa ENE 11.3 km/h 24.1 km/h 78 % 0 mm 7 W/m2
20:12 10.4 °C 6.7 °C 1026.3 hPa ENE 12.9 km/h 24.1 km/h 78 % 0 mm 5 W/m2
20:17 10.3 °C 6.8 °C 1026.3 hPa ENE 12.9 km/h 24.1 km/h 79 % 0 mm 5 W/m2
20:22 10.2 °C 6.7 °C 1026.3 hPa ENE 12.9 km/h 24.1 km/h 79 % 0 mm 0 W/m2
20:27 10.2 °C 6.7 °C 1026.3 hPa ENE 11.3 km/h 24.1 km/h 79 % 0 mm 0 W/m2
20:32 10.2 °C 6.7 °C 1026.3 hPa ENE 9.7 km/h 22.5 km/h 79 % 0 mm 0 W/m2
20:37 10.1 °C 6.6 °C 1026.6 hPa ENE 12.9 km/h 25.7 km/h 79 % 0 mm 0 W/m2
20:42 10 °C 6.5 °C 1026.6 hPa ENE 12.9 km/h 25.7 km/h 79 % 0 mm 0 W/m2
20:47 9.9 °C 6.6 °C 1026.6 hPa ENE 12.9 km/h 25.7 km/h 80 % 0 mm 0 W/m2
20:50 9.9 °C 6.6 °C 1026.6 hPa ENE 12.9 km/h 25.7 km/h 80 % 0 mm 0 W/m2
20:51 9.9 °C 6.6 °C 1026.6 hPa ENE 12.9 km/h 25.7 km/h 80 % 0 mm 0 W/m2
20:56 9.8 °C 6.7 °C 1026.6 hPa ENE 11.3 km/h 22.5 km/h 81 % 0 mm 0 W/m2
21:01 9.7 °C 6.6 °C 1027 hPa NE 11.3 km/h 29 km/h 81 % 0 mm 0 W/m2
21:06 9.6 °C 6.5 °C 1027 hPa NE 12.9 km/h 32.2 km/h 81 % 0 mm 0 W/m2
21:11 9.5 °C 6.4 °C 1027 hPa NE 12.9 km/h 32.2 km/h 81 % 0 mm 0 W/m2
21:16 9.4 °C 6.5 °C 1026.6 hPa NE 12.9 km/h 30.6 km/h 82 % 0 mm 0 W/m2
21:21 9.3 °C 6.4 °C 1027 hPa NE 11.3 km/h 22.5 km/h 82 % 0 mm 0 W/m2
21:26 9.3 °C 6.4 °C 1026.6 hPa NE 9.7 km/h 22.5 km/h 82 % 0 mm 0 W/m2
21:31 9.2 °C 6.3 °C 1027 hPa NE 9.7 km/h 22.5 km/h 82 % 0 mm 0 W/m2
21:36 9.2 °C 6.3 °C 1026.6 hPa NE 9.7 km/h 22.5 km/h 82 % 0 mm 0 W/m2
21:41 9.2 °C 6.3 °C 1027 hPa NE 8 km/h 22.5 km/h 82 % 0 mm 0 W/m2
21:46 9.1 °C 6.2 °C 1027 hPa NE 9.7 km/h 24.1 km/h 82 % 0 mm 0 W/m2
21:51 9 °C 6.3 °C 1027 hPa NE 11.3 km/h 24.1 km/h 83 % 0 mm 0 W/m2
21:56 8.9 °C 6.2 °C 1027 hPa NE 11.3 km/h 24.1 km/h 83 % 0 mm 0 W/m2
22:01 8.9 °C 6.2 °C 1027 hPa NE 11.3 km/h 24.1 km/h 83 % 0 mm 0 W/m2
22:06 8.9 °C 6.2 °C 1027 hPa NE 8 km/h 22.5 km/h 83 % 0 mm 0 W/m2
22:11 8.8 °C 6.1 °C 1027 hPa NE 8 km/h 19.3 km/h 83 % 0 mm 0 W/m2
22:16 8.8 °C 6.2 °C 1027 hPa NE 11.3 km/h 20.9 km/h 84 % 0 mm 0 W/m2
22:21 8.8 °C 6.1 °C 1027 hPa NE 11.3 km/h 20.9 km/h 83 % 0 mm 0 W/m2
22:26 8.7 °C 6 °C 1027 hPa NE 9.7 km/h 22.5 km/h 83 % 0 mm 0 W/m2
22:31 8.7 °C 6.2 °C 1027 hPa NE 8 km/h 22.5 km/h 84 % 0 mm 0 W/m2
22:36 8.7 °C 6.2 °C 1027 hPa NE 3.2 km/h 16.1 km/h 84 % 0 mm 0 W/m2
22:41 8.7 °C 6 °C 1027 hPa NE 3.2 km/h 20.9 km/h 83 % 0 mm 0 W/m2
22:46 8.7 °C 6 °C 1027 hPa NNE 6.4 km/h 20.9 km/h 83 % 0 mm 0 W/m2
22:52 8.7 °C 6 °C 1027 hPa NNE 6.4 km/h 16.1 km/h 83 % 0 mm 0 W/m2
22:57 8.6 °C 5.9 °C 1027 hPa NNE 9.7 km/h 22.5 km/h 83 % 0 mm 0 W/m2
23:02 8.6 °C 6.1 °C 1027 hPa NNE 9.7 km/h 22.5 km/h 84 % 0 mm 0 W/m2
23:07 8.6 °C 6.1 °C 1027 hPa NNE 8 km/h 19.3 km/h 84 % 0 mm 0 W/m2
23:11 8.6 °C 6.1 °C 1027 hPa NNE 9.7 km/h 19.3 km/h 84 % 0 mm 0 W/m2
23:12 8.6 °C 6.1 °C 1027 hPa NNE 9.7 km/h 19.3 km/h 84 % 0 mm 0 W/m2
23:17 8.5 °C 5.9 °C 1027 hPa NE 9.7 km/h 24.1 km/h 84 % 0 mm 0 W/m2
23:22 8.5 °C 6.1 °C 1027 hPa NE 11.3 km/h 24.1 km/h 85 % 0 mm 0 W/m2
23:27 8.4 °C 6 °C 1026.6 hPa NNE 9.7 km/h 20.9 km/h 85 % 0 mm 0 W/m2
23:32 8.4 °C 6 °C 1026.6 hPa NNE 8 km/h 19.3 km/h 85 % 0 mm 0 W/m2
23:37 8.4 °C 6 °C 1026.6 hPa NNE 9.7 km/h 20.9 km/h 85 % 0 mm 0 W/m2
23:42 8.4 °C 6 °C 1026.6 hPa NNE 11.3 km/h 20.9 km/h 85 % 0 mm 0 W/m2
23:47 8.4 °C 6 °C 1026.6 hPa NNE 9.7 km/h 19.3 km/h 85 % 0 mm 0 W/m2
23:49 8.4 °C 6 °C 1026.6 hPa NNE 9.7 km/h 22.5 km/h 85 % 0 mm 0 W/m2
23:54 8.4 °C 6 °C 1026.6 hPa NNE 11.3 km/h 22.5 km/h 85 % 0 mm 0 W/m2
23:59 8.4 °C 6 °C 1026.6 hPa NNE 9.7 km/h 19.3 km/h 85 % 0 mm 0 W/m2
Delerius-Weather
Compliments of Weather Underground - 2.25 mb

Data updates at regular intervals.